sensor_id;sensor_type;location;lat;lon;timestamp;P1;durP1;ratioP1;P2;durP2;ratioP2
21091;SDS011;10704;42.678;23.288;2023-03-01T00:00:54;8.23;;;3.92;;
21091;SDS011;10704;42.678;23.288;2023-03-01T00:03:27;7.80;;;4.38;;
21091;SDS011;10704;42.678;23.288;2023-03-01T00:05:52;7.53;;;4.28;;
21091;SDS011;10704;42.678;23.288;2023-03-01T00:08:18;7.38;;;3.63;;
21091;SDS011;10704;42.678;23.288;2023-03-01T00:10:44;6.63;;;3.95;;
21091;SDS011;10704;42.678;23.288;2023-03-01T00:13:10;8.48;;;3.85;;
21091;SDS011;10704;42.678;23.288;2023-03-01T00:15:39;7.13;;;4.13;;
21091;SDS011;10704;42.678;23.288;2023-03-01T00:18:07;8.05;;;4.10;;
21091;SDS011;10704;42.678;23.288;2023-03-01T00:20:33;7.95;;;4.50;;
21091;SDS011;10704;42.678;23.288;2023-03-01T00:22:59;7.20;;;4.50;;
21091;SDS011;10704;42.678;23.288;2023-03-01T00:25:25;7.70;;;4.25;;
21091;SDS011;10704;42.678;23.288;2023-03-01T00:27:51;7.20;;;4.07;;
21091;SDS011;10704;42.678;23.288;2023-03-01T00:30:18;8.10;;;4.40;;
21091;SDS011;10704;42.678;23.288;2023-03-01T00:32:45;7.32;;;4.13;;
21091;SDS011;10704;42.678;23.288;2023-03-01T00:35:10;6.25;;;3.83;;
21091;SDS011;10704;42.678;23.288;2023-03-01T00:37:36;6.25;;;3.60;;
21091;SDS011;10704;42.678;23.288;2023-03-01T00:40:03;5.63;;;3.45;;
21091;SDS011;10704;42.678;23.288;2023-03-01T00:42:31;6.43;;;3.90;;
21091;SDS011;10704;42.678;23.288;2023-03-01T00:44:57;6.05;;;3.67;;
21091;SDS011;10704;42.678;23.288;2023-03-01T00:47:23;6.90;;;3.85;;
21091;SDS011;10704;42.678;23.288;2023-03-01T00:49:48;6.07;;;3.60;;
21091;SDS011;10704;42.678;23.288;2023-03-01T00:52:14;6.75;;;3.60;;
21091;SDS011;10704;42.678;23.288;2023-03-01T00:54:40;6.22;;;3.13;;
21091;SDS011;10704;42.678;23.288;2023-03-01T00:57:07;8.45;;;3.70;;
21091;SDS011;10704;42.678;23.288;2023-03-01T00:59:33;5.95;;;3.28;;
21091;SDS011;10704;42.678;23.288;2023-03-01T01:02:00;5.82;;;3.25;;
21091;SDS011;10704;42.678;23.288;2023-03-01T01:04:25;5.70;;;3.40;;
21091;SDS011;10704;42.678;23.288;2023-03-01T01:06:51;6.03;;;3.42;;
21091;SDS011;10704;42.678;23.288;2023-03-01T01:09:17;5.80;;;3.33;;
21091;SDS011;10704;42.678;23.288;2023-03-01T01:11:47;5.25;;;3.08;;
21091;SDS011;10704;42.678;23.288;2023-03-01T01:14:15;5.47;;;3.03;;
21091;SDS011;10704;42.678;23.288;2023-03-01T01:16:42;5.43;;;2.88;;
21091;SDS011;10704;42.678;23.288;2023-03-01T01:19:09;4.85;;;2.90;;
21091;SDS011;10704;42.678;23.288;2023-03-01T01:21:36;5.03;;;2.78;;
21091;SDS011;10704;42.678;23.288;2023-03-01T01:24:03;5.32;;;2.80;;
21091;SDS011;10704;42.678;23.288;2023-03-01T01:26:31;4.88;;;2.45;;
21091;SDS011;10704;42.678;23.288;2023-03-01T01:28:58;4.95;;;2.67;;
21091;SDS011;10704;42.678;23.288;2023-03-01T01:31:26;4.75;;;2.78;;
21091;SDS011;10704;42.678;23.288;2023-03-01T01:33:55;5.78;;;2.80;;
21091;SDS011;10704;42.678;23.288;2023-03-01T01:36:21;4.25;;;2.22;;
21091;SDS011;10704;42.678;23.288;2023-03-01T01:38:47;4.22;;;2.50;;
21091;SDS011;10704;42.678;23.288;2023-03-01T01:41:15;3.55;;;2.08;;
21091;SDS011;10704;42.678;23.288;2023-03-01T01:43:42;3.17;;;2.00;;
21091;SDS011;10704;42.678;23.288;2023-03-01T01:46:29;4.43;;;2.00;;
21091;SDS011;10704;42.678;23.288;2023-03-01T01:49:10;3.63;;;2.08;;
21091;SDS011;10704;42.678;23.288;2023-03-01T01:51:48;3.05;;;1.95;;
21091;SDS011;10704;42.678;23.288;2023-03-01T01:54:19;3.05;;;1.80;;
21091;SDS011;10704;42.678;23.288;2023-03-01T01:56:51;3.65;;;1.83;;
21091;SDS011;10704;42.678;23.288;2023-03-01T01:59:20;3.85;;;2.22;;
21091;SDS011;10704;42.678;23.288;2023-03-01T02:01:50;2.63;;;1.73;;
21091;SDS011;10704;42.678;23.288;2023-03-01T02:04:17;3.08;;;1.83;;
21091;SDS011;10704;42.678;23.288;2023-03-01T02:06:51;3.60;;;2.00;;
21091;SDS011;10704;42.678;23.288;2023-03-01T02:09:23;3.22;;;1.83;;
21091;SDS011;10704;42.678;23.288;2023-03-01T02:11:49;4.78;;;1.85;;
21091;SDS011;10704;42.678;23.288;2023-03-01T02:14:16;2.28;;;1.65;;
21091;SDS011;10704;42.678;23.288;2023-03-01T02:16:43;4.63;;;1.80;;
21091;SDS011;10704;42.678;23.288;2023-03-01T02:19:10;2.67;;;1.85;;
21091;SDS011;10704;42.678;23.288;2023-03-01T02:28:02;2.53;;;1.75;;
21091;SDS011;10704;42.678;23.288;2023-03-01T02:30:39;3.30;;;1.67;;
21091;SDS011;10704;42.678;23.288;2023-03-01T02:33:25;2.63;;;1.67;;
21091;SDS011;10704;42.678;23.288;2023-03-01T02:35:53;2.58;;;1.70;;
21091;SDS011;10704;42.678;23.288;2023-03-01T02:38:21;3.55;;;1.90;;
21091;SDS011;10704;42.678;23.288;2023-03-01T02:40:48;3.80;;;2.15;;
21091;SDS011;10704;42.678;23.288;2023-03-01T02:43:16;3.22;;;2.00;;
21091;SDS011;10704;42.678;23.288;2023-03-01T02:45:51;3.95;;;2.40;;
21091;SDS011;10704;42.678;23.288;2023-03-01T02:48:18;2.95;;;2.00;;
21091;SDS011;10704;42.678;23.288;2023-03-01T02:57:01;3.72;;;2.30;;
21091;SDS011;10704;42.678;23.288;2023-03-01T02:59:30;4.03;;;2.38;;
21091;SDS011;10704;42.678;23.288;2023-03-01T03:02:06;4.25;;;2.50;;
21091;SDS011;10704;42.678;23.288;2023-03-01T03:04:32;4.13;;;2.47;;
21091;SDS011;10704;42.678;23.288;2023-03-01T03:06:58;4.95;;;2.78;;
21091;SDS011;10704;42.678;23.288;2023-03-01T03:09:25;4.38;;;2.80;;
21091;SDS011;10704;42.678;23.288;2023-03-01T03:11:50;4.70;;;2.78;;
21091;SDS011;10704;42.678;23.288;2023-03-01T03:14:16;4.15;;;2.63;;
21091;SDS011;10704;42.678;23.288;2023-03-01T03:16:46;4.90;;;2.40;;
21091;SDS011;10704;42.678;23.288;2023-03-01T03:19:14;4.45;;;2.90;;
21091;SDS011;10704;42.678;23.288;2023-03-01T03:21:41;5.05;;;3.00;;
21091;SDS011;10704;42.678;23.288;2023-03-01T03:24:08;5.38;;;3.10;;
21091;SDS011;10704;42.678;23.288;2023-03-01T03:26:34;4.80;;;2.95;;
21091;SDS011;10704;42.678;23.288;2023-03-01T03:29:00;5.10;;;2.85;;
21091;SDS011;10704;42.678;23.288;2023-03-01T03:31:26;6.15;;;3.88;;
21091;SDS011;10704;42.678;23.288;2023-03-01T03:33:52;8.23;;;4.07;;
21091;SDS011;10704;42.678;23.288;2023-03-01T03:36:20;6.15;;;3.50;;
21091;SDS011;10704;42.678;23.288;2023-03-01T03:38:48;6.10;;;3.83;;
21091;SDS011;10704;42.678;23.288;2023-03-01T03:41:14;6.65;;;3.90;;
21091;SDS011;10704;42.678;23.288;2023-03-01T03:43:40;5.70;;;3.42;;
21091;SDS011;10704;42.678;23.288;2023-03-01T03:46:14;6.00;;;3.72;;
21091;SDS011;10704;42.678;23.288;2023-03-01T03:48:41;5.95;;;3.35;;
21091;SDS011;10704;42.678;23.288;2023-03-01T03:51:12;6.30;;;3.03;;
21091;SDS011;10704;42.678;23.288;2023-03-01T03:53:40;6.28;;;3.45;;
21091;SDS011;10704;42.678;23.288;2023-03-01T03:56:07;6.10;;;3.13;;
21091;SDS011;10704;42.678;23.288;2023-03-01T03:58:33;6.47;;;3.47;;
21091;SDS011;10704;42.678;23.288;2023-03-01T04:00:59;7.93;;;3.53;;
21091;SDS011;10704;42.678;23.288;2023-03-01T04:03:26;6.10;;;3.30;;
21091;SDS011;10704;42.678;23.288;2023-03-01T04:05:53;4.82;;;2.70;;
21091;SDS011;10704;42.678;23.288;2023-03-01T04:08:19;5.15;;;2.97;;
21091;SDS011;10704;42.678;23.288;2023-03-01T04:10:48;6.00;;;2.97;;
21091;SDS011;10704;42.678;23.288;2023-03-01T04:13:20;6.95;;;3.13;;
21091;SDS011;10704;42.678;23.288;2023-03-01T04:15:50;5.10;;;3.15;;
21091;SDS011;10704;42.678;23.288;2023-03-01T04:18:18;5.90;;;3.38;;
21091;SDS011;10704;42.678;23.288;2023-03-01T04:20:45;7.55;;;3.05;;
21091;SDS011;10704;42.678;23.288;2023-03-01T04:23:16;6.78;;;3.25;;
21091;SDS011;10704;42.678;23.288;2023-03-01T04:25:46;5.60;;;2.95;;
21091;SDS011;10704;42.678;23.288;2023-03-01T04:28:21;5.80;;;2.85;;
21091;SDS011;10704;42.678;23.288;2023-03-01T04:30:51;4.28;;;2.67;;
21091;SDS011;10704;42.678;23.288;2023-03-01T04:33:18;5.03;;;2.80;;
21091;SDS011;10704;42.678;23.288;2023-03-01T04:35:44;5.00;;;2.58;;
21091;SDS011;10704;42.678;23.288;2023-03-01T04:38:10;5.05;;;2.67;;
21091;SDS011;10704;42.678;23.288;2023-03-01T04:40:36;5.60;;;3.00;;
21091;SDS011;10704;42.678;23.288;2023-03-01T04:43:03;7.88;;;3.20;;
21091;SDS011;10704;42.678;23.288;2023-03-01T04:45:30;6.00;;;2.80;;
21091;SDS011;10704;42.678;23.288;2023-03-01T04:47:57;6.60;;;3.38;;
21091;SDS011;10704;42.678;23.288;2023-03-01T04:50:23;5.65;;;3.35;;
21091;SDS011;10704;42.678;23.288;2023-03-01T04:52:50;4.93;;;2.75;;
21091;SDS011;10704;42.678;23.288;2023-03-01T04:55:17;5.13;;;2.75;;
21091;SDS011;10704;42.678;23.288;2023-03-01T04:57:44;5.45;;;2.75;;
21091;SDS011;10704;42.678;23.288;2023-03-01T05:00:10;6.78;;;3.22;;
21091;SDS011;10704;42.678;23.288;2023-03-01T05:05:22;4.85;;;2.85;;
21091;SDS011;10704;42.678;23.288;2023-03-01T05:07:54;6.60;;;3.15;;
21091;SDS011;10704;42.678;23.288;2023-03-01T05:10:25;4.85;;;2.58;;
21091;SDS011;10704;42.678;23.288;2023-03-01T05:12:52;5.97;;;2.92;;
21091;SDS011;10704;42.678;23.288;2023-03-01T05:15:18;4.88;;;2.70;;
21091;SDS011;10704;42.678;23.288;2023-03-01T05:17:47;5.32;;;2.80;;
21091;SDS011;10704;42.678;23.288;2023-03-01T05:20:13;6.88;;;3.50;;
21091;SDS011;10704;42.678;23.288;2023-03-01T05:22:39;6.40;;;3.28;;
21091;SDS011;10704;42.678;23.288;2023-03-01T05:25:05;5.22;;;2.97;;
21091;SDS011;10704;42.678;23.288;2023-03-01T05:27:32;6.03;;;3.08;;
21091;SDS011;10704;42.678;23.288;2023-03-01T05:29:58;5.95;;;3.30;;
21091;SDS011;10704;42.678;23.288;2023-03-01T05:32:24;5.68;;;3.53;;
21091;SDS011;10704;42.678;23.288;2023-03-01T05:34:50;8.23;;;4.75;;
21091;SDS011;10704;42.678;23.288;2023-03-01T05:37:17;6.32;;;3.92;;
21091;SDS011;10704;42.678;23.288;2023-03-01T05:39:44;5.57;;;3.10;;
21091;SDS011;10704;42.678;23.288;2023-03-01T05:42:10;5.53;;;3.10;;
21091;SDS011;10704;42.678;23.288;2023-03-01T05:44:37;6.03;;;3.10;;
21091;SDS011;10704;42.678;23.288;2023-03-01T05:47:03;6.55;;;3.00;;
21091;SDS011;10704;42.678;23.288;2023-03-01T05:49:29;5.15;;;3.17;;
21091;SDS011;10704;42.678;23.288;2023-03-01T05:51:55;5.68;;;3.13;;
21091;SDS011;10704;42.678;23.288;2023-03-01T05:54:21;4.22;;;2.50;;
21091;SDS011;10704;42.678;23.288;2023-03-01T05:56:48;5.15;;;2.90;;
21091;SDS011;10704;42.678;23.288;2023-03-01T05:59:13;4.95;;;2.75;;
21091;SDS011;10704;42.678;23.288;2023-03-01T06:01:41;5.38;;;3.22;;
21091;SDS011;10704;42.678;23.288;2023-03-01T06:04:07;5.82;;;3.00;;
21091;SDS011;10704;42.678;23.288;2023-03-01T06:06:33;9.68;;;2.90;;
21091;SDS011;10704;42.678;23.288;2023-03-01T06:09:02;5.85;;;3.20;;
21091;SDS011;10704;42.678;23.288;2023-03-01T06:11:29;5.95;;;3.28;;
21091;SDS011;10704;42.678;23.288;2023-03-01T06:13:55;7.05;;;4.10;;
21091;SDS011;10704;42.678;23.288;2023-03-01T06:16:21;6.35;;;3.88;;
21091;SDS011;10704;42.678;23.288;2023-03-01T06:18:46;6.70;;;3.75;;
21091;SDS011;10704;42.678;23.288;2023-03-01T06:21:12;9.38;;;3.72;;
21091;SDS011;10704;42.678;23.288;2023-03-01T06:23:38;6.40;;;3.72;;
21091;SDS011;10704;42.678;23.288;2023-03-01T06:26:05;8.05;;;3.42;;
21091;SDS011;10704;42.678;23.288;2023-03-01T06:28:32;9.60;;;3.55;;
21091;SDS011;10704;42.678;23.288;2023-03-01T06:30:58;8.93;;;3.83;;
21091;SDS011;10704;42.678;23.288;2023-03-01T06:33:24;6.13;;;3.20;;
21091;SDS011;10704;42.678;23.288;2023-03-01T06:35:51;5.65;;;3.10;;
21091;SDS011;10704;42.678;23.288;2023-03-01T06:38:19;7.25;;;3.42;;
21091;SDS011;10704;42.678;23.288;2023-03-01T06:40:50;8.13;;;3.88;;
21091;SDS011;10704;42.678;23.288;2023-03-01T06:43:18;7.32;;;3.55;;
21091;SDS011;10704;42.678;23.288;2023-03-01T06:45:44;6.82;;;3.42;;
21091;SDS011;10704;42.678;23.288;2023-03-01T06:48:10;7.32;;;3.78;;
21091;SDS011;10704;42.678;23.288;2023-03-01T06:50:36;7.32;;;3.65;;
21091;SDS011;10704;42.678;23.288;2023-03-01T06:53:02;6.45;;;3.60;;
21091;SDS011;10704;42.678;23.288;2023-03-01T06:55:29;6.80;;;3.42;;
21091;SDS011;10704;42.678;23.288;2023-03-01T06:57:55;7.25;;;3.50;;
21091;SDS011;10704;42.678;23.288;2023-03-01T07:00:22;6.68;;;3.10;;
21091;SDS011;10704;42.678;23.288;2023-03-01T07:02:49;6.13;;;3.40;;
21091;SDS011;10704;42.678;23.288;2023-03-01T07:05:15;9.70;;;4.18;;
21091;SDS011;10704;42.678;23.288;2023-03-01T07:07:41;10.20;;;3.63;;
21091;SDS011;10704;42.678;23.288;2023-03-01T07:10:07;6.40;;;3.53;;
21091;SDS011;10704;42.678;23.288;2023-03-01T07:12:34;9.27;;;3.17;;
21091;SDS011;10704;42.678;23.288;2023-03-01T07:14:59;6.68;;;3.20;;
21091;SDS011;10704;42.678;23.288;2023-03-01T07:17:25;6.30;;;2.95;;
21091;SDS011;10704;42.678;23.288;2023-03-01T07:19:51;5.40;;;2.60;;
21091;SDS011;10704;42.678;23.288;2023-03-01T07:22:17;7.68;;;3.55;;
21091;SDS011;10704;42.678;23.288;2023-03-01T07:24:43;8.35;;;3.60;;
21091;SDS011;10704;42.678;23.288;2023-03-01T07:27:09;9.10;;;3.97;;
21091;SDS011;10704;42.678;23.288;2023-03-01T07:29:35;7.18;;;2.83;;
21091;SDS011;10704;42.678;23.288;2023-03-01T07:32:02;7.53;;;2.70;;
21091;SDS011;10704;42.678;23.288;2023-03-01T07:34:28;5.97;;;2.92;;
21091;SDS011;10704;42.678;23.288;2023-03-01T07:36:54;6.00;;;2.67;;
21091;SDS011;10704;42.678;23.288;2023-03-01T07:39:20;7.60;;;3.08;;
21091;SDS011;10704;42.678;23.288;2023-03-01T07:41:48;8.30;;;3.40;;
21091;SDS011;10704;42.678;23.288;2023-03-01T07:44:20;7.15;;;3.05;;
21091;SDS011;10704;42.678;23.288;2023-03-01T07:46:46;6.53;;;3.05;;
21091;SDS011;10704;42.678;23.288;2023-03-01T07:49:11;6.72;;;3.13;;
21091;SDS011;10704;42.678;23.288;2023-03-01T07:51:37;7.35;;;3.88;;
21091;SDS011;10704;42.678;23.288;2023-03-01T07:54:03;7.03;;;3.30;;
21091;SDS011;10704;42.678;23.288;2023-03-01T07:56:29;8.85;;;3.55;;
21091;SDS011;10704;42.678;23.288;2023-03-01T07:58:55;9.40;;;4.70;;
21091;SDS011;10704;42.678;23.288;2023-03-01T08:01:21;9.25;;;3.40;;
21091;SDS011;10704;42.678;23.288;2023-03-01T08:03:47;5.55;;;2.88;;
21091;SDS011;10704;42.678;23.288;2023-03-01T08:06:14;4.80;;;2.80;;
21091;SDS011;10704;42.678;23.288;2023-03-01T08:08:41;6.40;;;3.05;;
21091;SDS011;10704;42.678;23.288;2023-03-01T08:11:09;6.88;;;3.28;;
21091;SDS011;10704;42.678;23.288;2023-03-01T08:13:36;5.55;;;2.80;;
21091;SDS011;10704;42.678;23.288;2023-03-01T08:16:12;6.93;;;3.65;;
21091;SDS011;10704;42.678;23.288;2023-03-01T08:18:41;7.40;;;3.22;;
21091;SDS011;10704;42.678;23.288;2023-03-01T08:21:10;5.72;;;3.13;;
21091;SDS011;10704;42.678;23.288;2023-03-01T08:23:38;9.23;;;5.70;;
21091;SDS011;10704;42.678;23.288;2023-03-01T08:28:35;7.00;;;3.42;;
21091;SDS011;10704;42.678;23.288;2023-03-01T08:31:01;6.88;;;3.47;;
21091;SDS011;10704;42.678;23.288;2023-03-01T08:33:27;7.60;;;4.10;;
21091;SDS011;10704;42.678;23.288;2023-03-01T08:36:02;9.48;;;4.53;;
21091;SDS011;10704;42.678;23.288;2023-03-01T08:38:29;8.45;;;5.53;;
21091;SDS011;10704;42.678;23.288;2023-03-01T08:40:55;7.68;;;4.72;;
21091;SDS011;10704;42.678;23.288;2023-03-01T08:43:24;7.30;;;4.20;;
21091;SDS011;10704;42.678;23.288;2023-03-01T08:45:49;6.60;;;4.43;;
21091;SDS011;10704;42.678;23.288;2023-03-01T08:48:15;5.95;;;4.15;;
21091;SDS011;10704;42.678;23.288;2023-03-01T08:50:41;7.85;;;3.72;;
21091;SDS011;10704;42.678;23.288;2023-03-01T08:53:07;7.43;;;3.97;;
21091;SDS011;10704;42.678;23.288;2023-03-01T08:55:33;6.07;;;3.70;;
21091;SDS011;10704;42.678;23.288;2023-03-01T08:57:59;6.18;;;4.00;;
21091;SDS011;10704;42.678;23.288;2023-03-01T09:00:24;5.70;;;3.20;;
21091;SDS011;10704;42.678;23.288;2023-03-01T09:02:50;7.88;;;3.97;;
21091;SDS011;10704;42.678;23.288;2023-03-01T09:05:17;4.65;;;3.03;;
21091;SDS011;10704;42.678;23.288;2023-03-01T09:07:43;5.00;;;3.10;;
21091;SDS011;10704;42.678;23.288;2023-03-01T09:10:09;5.20;;;3.03;;
21091;SDS011;10704;42.678;23.288;2023-03-01T09:12:35;4.10;;;2.90;;
21091;SDS011;10704;42.678;23.288;2023-03-01T09:15:01;7.53;;;3.38;;
21091;SDS011;10704;42.678;23.288;2023-03-01T09:17:27;5.68;;;3.30;;
21091;SDS011;10704;42.678;23.288;2023-03-01T09:19:53;5.68;;;3.08;;
21091;SDS011;10704;42.678;23.288;2023-03-01T09:22:19;5.32;;;3.42;;
21091;SDS011;10704;42.678;23.288;2023-03-01T09:24:44;6.68;;;3.88;;
21091;SDS011;10704;42.678;23.288;2023-03-01T09:27:10;7.72;;;3.92;;
21091;SDS011;10704;42.678;23.288;2023-03-01T09:29:37;6.03;;;3.63;;
21091;SDS011;10704;42.678;23.288;2023-03-01T09:32:04;5.22;;;2.92;;
21091;SDS011;10704;42.678;23.288;2023-03-01T09:34:30;7.13;;;2.78;;
21091;SDS011;10704;42.678;23.288;2023-03-01T09:36:57;3.70;;;2.47;;
21091;SDS011;10704;42.678;23.288;2023-03-01T09:39:23;4.30;;;2.55;;
21091;SDS011;10704;42.678;23.288;2023-03-01T09:41:53;4.35;;;2.70;;
21091;SDS011;10704;42.678;23.288;2023-03-01T09:47:08;4.07;;;2.40;;
21091;SDS011;10704;42.678;23.288;2023-03-01T09:49:41;4.18;;;2.25;;
21091;SDS011;10704;42.678;23.288;2023-03-01T09:55:08;4.70;;;2.40;;
21091;SDS011;10704;42.678;23.288;2023-03-01T10:05:29;3.92;;;2.03;;
21091;SDS011;10704;42.678;23.288;2023-03-01T10:10:47;4.78;;;1.80;;
21091;SDS011;10704;42.678;23.288;2023-03-01T10:13:19;4.82;;;2.20;;
21091;SDS011;10704;42.678;23.288;2023-03-01T10:15:53;5.05;;;2.28;;
21091;SDS011;10704;42.678;23.288;2023-03-01T10:18:28;3.60;;;1.92;;
21091;SDS011;10704;42.678;23.288;2023-03-01T10:23:29;4.32;;;2.03;;
21091;SDS011;10704;42.678;23.288;2023-03-01T10:26:12;3.92;;;2.30;;
21091;SDS011;10704;42.678;23.288;2023-03-01T10:29:04;8.68;;;2.33;;
21091;SDS011;10704;42.678;23.288;2023-03-01T10:34:07;4.28;;;2.13;;
21091;SDS011;10704;42.678;23.288;2023-03-01T10:36:39;5.60;;;2.55;;
21091;SDS011;10704;42.678;23.288;2023-03-01T10:39:11;4.32;;;1.95;;
21091;SDS011;10704;42.678;23.288;2023-03-01T10:47:16;3.90;;;2.35;;
21091;SDS011;10704;42.678;23.288;2023-03-01T10:49:52;8.57;;;2.50;;
21091;SDS011;10704;42.678;23.288;2023-03-01T10:52:31;5.22;;;2.72;;
21091;SDS011;10704;42.678;23.288;2023-03-01T10:55:00;4.20;;;2.83;;
21091;SDS011;10704;42.678;23.288;2023-03-01T10:57:49;4.55;;;2.65;;
21091;SDS011;10704;42.678;23.288;2023-03-01T11:00:30;6.05;;;2.70;;
21091;SDS011;10704;42.678;23.288;2023-03-01T11:03:13;5.38;;;3.20;;
21091;SDS011;10704;42.678;23.288;2023-03-01T11:05:52;5.70;;;3.40;;
21091;SDS011;10704;42.678;23.288;2023-03-01T11:08:29;3.80;;;2.30;;
21091;SDS011;10704;42.678;23.288;2023-03-01T11:11:05;4.93;;;2.50;;
21091;SDS011;10704;42.678;23.288;2023-03-01T11:13:31;5.65;;;2.40;;
21091;SDS011;10704;42.678;23.288;2023-03-01T11:18:28;8.38;;;2.85;;
21091;SDS011;10704;42.678;23.288;2023-03-01T11:20:55;5.65;;;2.65;;
21091;SDS011;10704;42.678;23.288;2023-03-01T11:23:25;6.25;;;2.42;;
21091;SDS011;10704;42.678;23.288;2023-03-01T11:25:56;3.88;;;2.42;;
21091;SDS011;10704;42.678;23.288;2023-03-01T11:28:28;7.03;;;2.40;;
21091;SDS011;10704;42.678;23.288;2023-03-01T11:31:02;5.07;;;2.47;;
21091;SDS011;10704;42.678;23.288;2023-03-01T11:36:52;3.58;;;2.20;;
21091;SDS011;10704;42.678;23.288;2023-03-01T11:39:38;8.93;;;2.83;;
21091;SDS011;10704;42.678;23.288;2023-03-01T11:42:17;4.63;;;2.67;;
21091;SDS011;10704;42.678;23.288;2023-03-01T11:44:50;6.20;;;2.67;;
21091;SDS011;10704;42.678;23.288;2023-03-01T11:52:54;5.70;;;2.97;;
21091;SDS011;10704;42.678;23.288;2023-03-01T11:55:36;5.65;;;2.70;;
21091;SDS011;10704;42.678;23.288;2023-03-01T12:04:34;7.05;;;3.03;;
21091;SDS011;10704;42.678;23.288;2023-03-01T12:12:58;7.60;;;3.47;;
21091;SDS011;10704;42.678;23.288;2023-03-01T12:21:27;6.57;;;3.53;;
21091;SDS011;10704;42.678;23.288;2023-03-01T12:29:22;5.88;;;3.65;;
21091;SDS011;10704;42.678;23.288;2023-03-01T12:37:20;7.15;;;3.75;;
21091;SDS011;10704;42.678;23.288;2023-03-01T12:48:56;7.25;;;3.60;;
21091;SDS011;10704;42.678;23.288;2023-03-01T12:51:26;5.30;;;3.35;;
21091;SDS011;10704;42.678;23.288;2023-03-01T12:53:55;6.38;;;3.53;;
21091;SDS011;10704;42.678;23.288;2023-03-01T12:56:28;6.70;;;3.97;;
21091;SDS011;10704;42.678;23.288;2023-03-01T13:01:43;5.75;;;3.08;;
21091;SDS011;10704;42.678;23.288;2023-03-01T13:13:14;8.23;;;4.07;;
21091;SDS011;10704;42.678;23.288;2023-03-01T13:15:49;5.55;;;3.65;;
21091;SDS011;10704;42.678;23.288;2023-03-01T13:20:48;7.47;;;4.70;;
21091;SDS011;10704;42.678;23.288;2023-03-01T13:31:10;8.77;;;4.22;;
21091;SDS011;10704;42.678;23.288;2023-03-01T13:42:48;5.88;;;3.00;;
21091;SDS011;10704;42.678;23.288;2023-03-01T13:45:38;7.00;;;3.83;;
21091;SDS011;10704;42.678;23.288;2023-03-01T13:48:09;6.13;;;3.20;;
21091;SDS011;10704;42.678;23.288;2023-03-01T13:50:43;5.65;;;3.60;;
21091;SDS011;10704;42.678;23.288;2023-03-01T13:53:20;7.78;;;3.90;;
21091;SDS011;10704;42.678;23.288;2023-03-01T13:56:24;7.30;;;4.25;;
21091;SDS011;10704;42.678;23.288;2023-03-01T14:07:21;5.93;;;3.45;;
21091;SDS011;10704;42.678;23.288;2023-03-01T14:09:53;13.43;;;4.57;;
21091;SDS011;10704;42.678;23.288;2023-03-01T14:15:18;6.88;;;4.03;;
21091;SDS011;10704;42.678;23.288;2023-03-01T14:17:55;9.15;;;4.10;;
21091;SDS011;10704;42.678;23.288;2023-03-01T14:20:43;8.93;;;4.28;;
21091;SDS011;10704;42.678;23.288;2023-03-01T14:23:22;7.47;;;3.83;;
21091;SDS011;10704;42.678;23.288;2023-03-01T14:34:31;8.45;;;4.22;;
21091;SDS011;10704;42.678;23.288;2023-03-01T14:37:09;7.85;;;3.40;;
21091;SDS011;10704;42.678;23.288;2023-03-01T14:39:35;5.60;;;3.25;;
21091;SDS011;10704;42.678;23.288;2023-03-01T14:42:04;10.88;;;4.05;;
21091;SDS011;10704;42.678;23.288;2023-03-01T14:44:30;16.02;;;5.18;;
21091;SDS011;10704;42.678;23.288;2023-03-01T14:46:59;11.60;;;5.15;;
21091;SDS011;10704;42.678;23.288;2023-03-01T14:49:29;8.60;;;4.60;;
21091;SDS011;10704;42.678;23.288;2023-03-01T14:52:00;6.28;;;3.65;;
21091;SDS011;10704;42.678;23.288;2023-03-01T14:57:19;6.60;;;3.00;;
21091;SDS011;10704;42.678;23.288;2023-03-01T14:59:47;10.95;;;4.22;;
21091;SDS011;10704;42.678;23.288;2023-03-01T15:02:17;6.70;;;3.30;;
21091;SDS011;10704;42.678;23.288;2023-03-01T15:04:45;6.30;;;2.90;;
21091;SDS011;10704;42.678;23.288;2023-03-01T15:07:13;6.63;;;3.17;;
21091;SDS011;10704;42.678;23.288;2023-03-01T15:09:40;6.22;;;2.90;;
21091;SDS011;10704;42.678;23.288;2023-03-01T15:19:41;5.80;;;2.72;;
21091;SDS011;10704;42.678;23.288;2023-03-01T15:22:12;6.57;;;3.33;;
21091;SDS011;10704;42.678;23.288;2023-03-01T15:28:29;7.60;;;3.03;;
21091;SDS011;10704;42.678;23.288;2023-03-01T15:31:03;6.47;;;3.10;;
21091;SDS011;10704;42.678;23.288;2023-03-01T15:33:38;8.73;;;3.72;;
21091;SDS011;10704;42.678;23.288;2023-03-01T15:39:04;9.57;;;4.43;;
21091;SDS011;10704;42.678;23.288;2023-03-01T15:44:46;14.02;;;6.93;;
21091;SDS011;10704;42.678;23.288;2023-03-01T15:50:34;9.45;;;5.70;;
21091;SDS011;10704;42.678;23.288;2023-03-01T15:56:52;10.70;;;5.00;;
21091;SDS011;10704;42.678;23.288;2023-03-01T15:59:18;9.02;;;4.68;;
21091;SDS011;10704;42.678;23.288;2023-03-01T16:01:44;7.13;;;4.20;;
21091;SDS011;10704;42.678;23.288;2023-03-01T16:04:11;7.93;;;3.85;;
21091;SDS011;10704;42.678;23.288;2023-03-01T16:06:46;6.95;;;4.20;;
21091;SDS011;10704;42.678;23.288;2023-03-01T16:12:14;10.45;;;5.10;;
21091;SDS011;10704;42.678;23.288;2023-03-01T16:14:41;6.93;;;3.90;;
21091;SDS011;10704;42.678;23.288;2023-03-01T16:17:07;9.05;;;4.03;;
21091;SDS011;10704;42.678;23.288;2023-03-01T16:23:16;8.18;;;4.45;;
21091;SDS011;10704;42.678;23.288;2023-03-01T16:25:42;7.80;;;4.63;;
21091;SDS011;10704;42.678;23.288;2023-03-01T16:28:08;10.05;;;4.57;;
21091;SDS011;10704;42.678;23.288;2023-03-01T16:30:35;9.88;;;4.40;;
21091;SDS011;10704;42.678;23.288;2023-03-01T16:33:02;8.85;;;4.63;;
21091;SDS011;10704;42.678;23.288;2023-03-01T16:35:31;7.47;;;4.32;;
21091;SDS011;10704;42.678;23.288;2023-03-01T16:37:59;8.70;;;4.15;;
21091;SDS011;10704;42.678;23.288;2023-03-01T16:40:28;7.90;;;4.15;;
21091;SDS011;10704;42.678;23.288;2023-03-01T16:42:54;7.47;;;4.10;;
21091;SDS011;10704;42.678;23.288;2023-03-01T16:45:24;9.35;;;4.38;;
21091;SDS011;10704;42.678;23.288;2023-03-01T16:47:51;10.75;;;4.40;;
21091;SDS011;10704;42.678;23.288;2023-03-01T16:50:17;9.68;;;3.90;;
21091;SDS011;10704;42.678;23.288;2023-03-01T16:52:43;8.98;;;4.15;;
21091;SDS011;10704;42.678;23.288;2023-03-01T16:55:09;6.90;;;3.85;;
21091;SDS011;10704;42.678;23.288;2023-03-01T16:57:36;8.80;;;4.32;;
21091;SDS011;10704;42.678;23.288;2023-03-01T17:00:05;10.60;;;4.45;;
21091;SDS011;10704;42.678;23.288;2023-03-01T17:02:38;8.93;;;4.50;;
21091;SDS011;10704;42.678;23.288;2023-03-01T17:05:05;7.85;;;4.10;;
21091;SDS011;10704;42.678;23.288;2023-03-01T17:07:32;8.88;;;4.05;;
21091;SDS011;10704;42.678;23.288;2023-03-01T17:10:02;11.38;;;4.55;;
21091;SDS011;10704;42.678;23.288;2023-03-01T17:12:30;9.23;;;4.05;;
21091;SDS011;10704;42.678;23.288;2023-03-01T17:14:57;9.75;;;4.35;;
21091;SDS011;10704;42.678;23.288;2023-03-01T17:17:23;9.77;;;3.72;;
21091;SDS011;10704;42.678;23.288;2023-03-01T17:19:49;7.40;;;3.70;;
21091;SDS011;10704;42.678;23.288;2023-03-01T17:22:15;7.13;;;3.85;;
21091;SDS011;10704;42.678;23.288;2023-03-01T17:24:42;6.90;;;3.08;;
21091;SDS011;10704;42.678;23.288;2023-03-01T17:27:09;7.22;;;3.80;;
21091;SDS011;10704;42.678;23.288;2023-03-01T17:29:36;9.38;;;3.75;;
21091;SDS011;10704;42.678;23.288;2023-03-01T17:32:03;7.95;;;4.25;;
21091;SDS011;10704;42.678;23.288;2023-03-01T17:53:30;9.48;;;5.38;;
21091;SDS011;10704;42.678;23.288;2023-03-01T17:56:02;8.95;;;4.97;;
21091;SDS011;10704;42.678;23.288;2023-03-01T17:58:30;8.68;;;4.97;;
21091;SDS011;10704;42.678;23.288;2023-03-01T18:01:07;10.05;;;5.35;;